sim
Sign-in with your pilot id or email,
or register
Callsign
Passwort

Schedule Details

Flight Number: DLH2071
Departure: Hamburg Airport (EDDH) at 14:15
Arrival: Munich Airport (EDDM) at 15:30
Route: Lufthansa Passenger Schedule. Enter filed route here before submitting Pirep.

Weather Information
Getting current METAR information for EDDH 261850Z 34011KT 310V020 4500 RA BKN008 12/11 Q0992 TEMPO 34015G25KT 6000 NSW
Getting current METAR information for EDDM 261850Z 24019KT 9999 -RA SCT023 BKN033 07/04 Q1001 NOSIG

Schedule Frequency

Route Map